createdAt,value
2018-12-04T00:01:31.436Z,0.80
2018-12-04T00:04:04.627Z,1.93
2018-12-04T00:06:37.252Z,0.90
2018-12-04T00:09:09.699Z,0.97
2018-12-04T00:11:42.437Z,1.63
2018-12-04T00:14:13.164Z,1.00
2018-12-04T00:16:44.333Z,1.33
2018-12-04T00:19:15.296Z,1.40
2018-12-04T00:21:48.490Z,1.30
2018-12-04T00:24:21.505Z,1.00
2018-12-04T00:26:54.443Z,1.10
2018-12-04T00:29:26.055Z,1.20
2018-12-04T00:31:56.899Z,1.50
2018-12-04T00:34:28.127Z,1.07
2018-12-04T00:37:00.406Z,1.33
2018-12-04T00:39:33.441Z,1.77
2018-12-04T00:42:04.596Z,1.40
2018-12-04T00:44:35.662Z,1.40
2018-12-04T00:47:10.984Z,1.73
2018-12-04T00:49:44.477Z,2.30
2018-12-04T00:52:15.609Z,2.40
2018-12-04T00:54:46.558Z,1.90
2018-12-04T00:57:17.273Z,1.80
2018-12-04T00:59:48.005Z,1.73
2018-12-04T01:02:18.744Z,2.30
2018-12-04T01:04:51.587Z,1.97
2018-12-04T01:07:22.521Z,2.07
2018-12-04T01:09:53.609Z,2.27
2018-12-04T01:12:26.610Z,1.93
2018-12-04T01:14:58.183Z,2.20
2018-12-04T01:20:34.797Z,1.77
2018-12-04T01:23:06.647Z,1.67
2018-12-04T01:25:40.472Z,1.90
2018-12-04T01:28:11.264Z,1.63
2018-12-04T01:30:42.480Z,1.90
2018-12-04T01:33:15.814Z,1.73
2018-12-04T01:35:51.141Z,1.40
2018-12-04T01:38:22.850Z,1.47
2018-12-04T01:40:55.643Z,2.00
2018-12-04T01:43:26.841Z,1.43
2018-12-04T01:45:59.856Z,1.53
2018-12-04T01:48:30.624Z,1.80
2018-12-04T01:51:03.915Z,1.30
2018-12-04T01:53:36.990Z,1.23
2018-12-04T01:56:07.727Z,0.77
2018-12-04T01:58:38.871Z,0.93
2018-12-04T02:01:11.854Z,0.70
2018-12-04T02:03:44.774Z,0.60
2018-12-04T02:06:16.818Z,0.80
2018-12-04T02:08:49.585Z,0.90
2018-12-04T02:11:20.323Z,0.60
2018-12-04T02:13:51.088Z,0.80
2018-12-04T02:27:05.127Z,0.77
2018-12-04T02:29:38.830Z,0.80
2018-12-04T02:32:10.118Z,0.50
2018-12-04T02:34:40.924Z,0.60
2018-12-04T02:37:13.528Z,0.50
2018-12-04T02:39:46.924Z,0.50
2018-12-04T02:42:25.920Z,0.50
2018-12-04T02:45:37.025Z,0.50
2018-12-04T02:48:07.955Z,0.50
2018-12-04T02:50:39.738Z,0.53
2018-12-04T02:53:12.464Z,0.50
2018-12-04T02:55:43.733Z,0.70
2018-12-04T02:58:14.630Z,0.60
2018-12-04T03:00:44.769Z,0.50
2018-12-04T03:03:14.786Z,0.50
2018-12-04T03:05:45.706Z,0.50
2018-12-04T03:08:16.284Z,0.60
2018-12-04T03:10:47.364Z,0.63
2018-12-04T03:13:19.735Z,0.53
2018-12-04T03:15:54.617Z,0.60
2018-12-04T03:18:24.814Z,0.70
2018-12-04T03:20:54.925Z,0.80
2018-12-04T03:23:25.803Z,0.60
2018-12-04T03:25:55.740Z,0.53
2018-12-04T03:28:26.937Z,0.60
2018-12-04T03:30:57.941Z,0.50
2018-12-04T03:33:40.970Z,0.70
2018-12-04T03:36:10.887Z,0.80
2018-12-04T03:38:41.845Z,0.60
2018-12-04T03:41:16.193Z,0.60
2018-12-04T03:43:46.009Z,0.90
2018-12-04T03:46:16.901Z,1.67
2018-12-04T03:48:53.933Z,1.00
2018-12-04T03:51:24.013Z,1.07
2018-12-04T03:53:55.128Z,0.90
2018-12-04T03:56:26.112Z,0.80
2018-12-04T03:58:56.330Z,0.70
2018-12-04T04:01:27.271Z,0.73
2018-12-04T04:03:57.796Z,0.87
2018-12-04T04:06:27.247Z,0.70
2018-12-04T04:08:58.207Z,0.90
2018-12-04T04:11:27.560Z,0.90
2018-12-04T04:13:58.941Z,1.10
2018-12-04T04:16:35.741Z,0.73
2018-12-04T04:19:10.075Z,0.80
2018-12-04T04:21:40.205Z,1.00
2018-12-04T04:24:10.110Z,1.60
2018-12-04T04:26:41.118Z,1.17
2018-12-04T04:29:11.312Z,0.70
2018-12-04T04:31:42.141Z,0.93
2018-12-04T04:34:12.111Z,0.70
2018-12-04T04:36:43.317Z,1.00
2018-12-04T04:39:14.124Z,1.33
2018-12-04T04:41:47.202Z,1.00
2018-12-04T04:44:18.989Z,0.70
2018-12-04T04:46:57.890Z,0.93
2018-12-04T04:49:27.394Z,0.70
2018-12-04T04:51:59.299Z,0.80
2018-12-04T04:54:30.103Z,3.57
2018-12-04T04:57:00.277Z,1.00
2018-12-04T04:59:30.267Z,0.93
2018-12-04T05:02:03.133Z,3.23
2018-12-04T05:04:37.347Z,1.10
2018-12-04T05:07:09.734Z,1.03
2018-12-04T05:09:40.402Z,1.10
2018-12-04T05:12:11.661Z,3.60
2018-12-04T05:14:42.390Z,3.10
2018-12-04T05:17:18.718Z,2.00
2018-12-04T05:19:49.268Z,1.13
2018-12-04T05:22:19.496Z,0.83
2018-12-04T05:24:50.351Z,1.00
2018-12-04T05:27:23.523Z,1.20
2018-12-04T05:29:54.346Z,1.23
2018-12-04T05:32:24.498Z,0.90
2018-12-04T05:34:55.511Z,1.20
2018-12-04T05:37:26.052Z,1.40
2018-12-04T05:39:56.629Z,2.90
2018-12-04T05:42:27.486Z,0.90
2018-12-04T05:45:00.564Z,0.80
2018-12-04T05:47:31.428Z,1.60
2018-12-04T05:50:02.581Z,1.10
2018-12-04T05:52:32.449Z,1.03
2018-12-04T05:55:04.221Z,1.13
2018-12-04T05:57:34.646Z,1.27
2018-12-04T06:00:06.055Z,1.00
2018-12-04T06:02:35.533Z,0.80
2018-12-04T06:05:07.092Z,0.80
2018-12-04T06:07:36.763Z,0.80
2018-12-04T06:10:08.682Z,1.30
2018-12-04T06:12:39.454Z,0.87
2018-12-04T06:15:10.068Z,0.70
2018-12-04T06:17:40.701Z,0.90
2018-12-04T06:20:10.658Z,0.60
2018-12-04T06:22:41.810Z,0.90
2018-12-04T06:25:14.091Z,0.80
2018-12-04T06:27:48.373Z,0.60
2018-12-04T06:30:19.726Z,1.10
2018-12-04T06:32:49.811Z,0.80
2018-12-04T06:35:20.954Z,1.07
2018-12-04T06:37:50.747Z,1.47
2018-12-04T06:40:21.569Z,2.30
2018-12-04T06:42:52.755Z,2.63
2018-12-04T06:45:22.758Z,1.60
2018-12-04T06:47:53.820Z,2.40
2018-12-04T06:50:23.821Z,3.70
2018-12-04T06:52:54.761Z,2.50
2018-12-04T06:55:27.073Z,6.00
2018-12-04T06:57:59.455Z,2.00
2018-12-04T07:00:35.753Z,1.90
2018-12-04T07:03:13.653Z,2.37
2018-12-04T07:05:49.048Z,3.20
2018-12-04T07:08:19.837Z,3.53
2018-12-04T07:10:50.817Z,2.50
2018-12-04T07:13:20.821Z,4.80
2018-12-04T07:15:52.073Z,2.60
2018-12-04T07:18:22.830Z,2.23
2018-12-04T07:20:52.980Z,5.20
2018-12-04T07:23:24.085Z,2.00
2018-12-04T07:25:55.014Z,2.47
2018-12-04T07:28:25.937Z,1.67
2018-12-04T07:30:56.660Z,2.20
2018-12-04T07:33:30.802Z,4.00
2018-12-04T07:36:12.830Z,2.27
2018-12-04T07:38:43.047Z,1.53
2018-12-04T07:41:13.806Z,1.10
2018-12-04T07:43:44.125Z,1.30
2018-12-04T07:46:15.078Z,1.70
2018-12-04T07:51:45.197Z,1.23
2018-12-04T07:54:17.282Z,1.07
2018-12-04T07:56:47.144Z,1.10
2018-12-04T07:59:17.957Z,2.10
2018-12-04T08:01:49.177Z,1.20
2018-12-04T08:04:19.326Z,1.30
2018-12-04T08:06:50.066Z,1.07
2018-12-04T08:09:21.093Z,1.23
2018-12-04T08:11:51.202Z,1.10
2018-12-04T08:14:25.045Z,1.27
2018-12-04T08:16:56.108Z,1.00
2018-12-04T08:19:27.165Z,1.27
2018-12-04T08:21:57.401Z,1.30
2018-12-04T08:24:27.432Z,0.97
2018-12-04T08:26:56.927Z,1.33
2018-12-04T08:29:27.459Z,1.53
2018-12-04T08:31:58.278Z,1.40
2018-12-04T08:34:27.625Z,0.83
2018-12-04T08:36:59.446Z,1.37
2018-12-04T08:39:30.022Z,1.00
2018-12-04T08:45:03.773Z,1.40
2018-12-04T08:47:35.332Z,0.90
2018-12-04T08:50:08.977Z,1.03
2018-12-04T08:52:39.490Z,1.37
2018-12-04T08:55:09.397Z,1.37
2018-12-04T08:57:40.490Z,1.10
2018-12-04T09:00:10.340Z,0.90
2018-12-04T09:02:41.598Z,1.00
2018-12-04T09:05:12.478Z,0.73
2018-12-04T09:07:42.734Z,1.30
2018-12-04T09:10:13.401Z,1.77
2018-12-04T09:12:44.337Z,1.10
2018-12-04T09:15:15.158Z,1.70
2018-12-04T09:17:50.169Z,1.00
2018-12-04T09:20:23.358Z,1.20
2018-12-04T09:22:53.546Z,1.27
2018-12-04T09:25:23.451Z,1.50
2018-12-04T09:27:55.814Z,1.30
2018-12-04T09:30:25.510Z,1.10
2018-12-04T09:32:54.974Z,2.13
2018-12-04T09:35:26.646Z,2.30
2018-12-04T09:37:57.474Z,2.43
2018-12-04T09:40:27.548Z,2.30
2018-12-04T09:43:04.148Z,1.30
2018-12-04T09:45:32.810Z,1.30
2018-12-04T09:48:03.409Z,2.87
2018-12-04T09:50:33.589Z,1.40
2018-12-04T09:53:04.555Z,2.83
2018-12-04T09:55:35.052Z,1.63
2018-12-04T09:58:05.556Z,1.67
2018-12-04T10:00:39.452Z,2.57
2018-12-04T10:03:09.728Z,1.50
2018-12-04T10:05:39.779Z,1.50
2018-12-04T10:08:12.021Z,1.13
2018-12-04T10:10:41.831Z,2.93
2018-12-04T10:16:12.885Z,2.03
2018-12-04T10:18:47.715Z,2.40
2018-12-04T10:21:16.802Z,1.87
2018-12-04T10:23:48.002Z,2.40
2018-12-04T10:26:19.008Z,2.20
2018-12-04T10:28:48.690Z,2.37
2018-12-04T10:31:19.726Z,2.43
2018-12-04T10:33:53.506Z,1.20
2018-12-04T10:36:23.700Z,1.93
2018-12-04T10:38:54.861Z,3.43
2018-12-04T10:41:24.284Z,2.83
2018-12-04T10:43:59.648Z,3.57
2018-12-04T10:46:30.731Z,1.30
2018-12-04T10:49:00.849Z,1.93
2018-12-04T10:51:31.098Z,3.70
2018-12-04T10:54:02.970Z,3.77
2018-12-04T10:56:33.982Z,1.77
2018-12-04T10:59:04.082Z,2.93
2018-12-04T11:01:39.172Z,2.47
2018-12-04T11:04:10.903Z,1.60
2018-12-04T11:09:41.513Z,2.30
2018-12-04T11:12:13.768Z,1.40
2018-12-04T11:14:43.310Z,1.57
2018-12-04T11:17:14.097Z,1.20
2018-12-04T11:19:47.783Z,1.73
2018-12-04T11:22:19.099Z,1.70
2018-12-04T11:24:49.082Z,1.60
2018-12-04T11:27:19.310Z,1.87
2018-12-04T11:29:51.808Z,3.70
2018-12-04T11:32:21.989Z,1.90
2018-12-04T11:34:56.035Z,1.57
2018-12-04T11:37:27.000Z,1.50
2018-12-04T11:40:01.002Z,1.30
2018-12-04T11:42:30.345Z,1.77
2018-12-04T11:45:02.115Z,1.27
2018-12-04T11:47:35.024Z,1.50
2018-12-04T11:50:06.896Z,1.70
2018-12-04T11:52:37.074Z,1.47
2018-12-04T11:55:07.937Z,1.50
2018-12-04T11:57:38.198Z,2.13
2018-12-04T12:00:16.494Z,2.20
2018-12-04T12:02:48.037Z,2.20
2018-12-04T12:05:22.246Z,2.17
2018-12-04T12:07:52.081Z,1.70
2018-12-04T12:10:27.757Z,1.40
2018-12-04T12:13:02.020Z,1.53
2018-12-04T12:15:37.141Z,1.47
2018-12-04T12:18:09.367Z,1.10
2018-12-04T12:20:41.259Z,1.43
2018-12-04T12:23:11.333Z,2.00
2018-12-04T12:25:41.304Z,1.83
2018-12-04T12:28:14.461Z,1.00
2018-12-04T12:30:46.113Z,1.20
2018-12-04T12:33:20.296Z,1.60
2018-12-04T12:35:51.139Z,1.30
2018-12-04T12:38:21.359Z,0.90
2018-12-04T12:40:52.384Z,0.80
2018-12-04T12:43:22.337Z,0.60
2018-12-04T12:45:56.448Z,0.80
2018-12-04T12:48:27.940Z,1.30
2018-12-04T12:50:58.390Z,1.90
2018-12-04T12:53:27.910Z,0.60
2018-12-04T12:55:59.225Z,0.63
2018-12-04T12:58:28.675Z,0.50
2018-12-04T13:00:58.496Z,0.60
2018-12-04T13:03:27.949Z,0.60
2018-12-04T13:05:59.607Z,0.77
2018-12-04T13:08:32.605Z,0.60
2018-12-04T13:11:04.680Z,0.73
2018-12-04T13:13:36.975Z,1.10
2018-12-04T13:16:09.736Z,1.50
2018-12-04T13:18:40.638Z,1.60
2018-12-04T13:21:15.177Z,1.60
2018-12-04T13:23:46.415Z,1.90
2018-12-04T13:26:19.530Z,3.27
2018-12-04T13:28:51.021Z,3.40
2018-12-04T13:31:20.836Z,3.23
2018-12-04T13:33:51.419Z,4.03
2018-12-04T13:36:25.362Z,1.87
2018-12-04T13:38:55.562Z,2.40
2018-12-04T13:41:26.789Z,3.00
2018-12-04T13:43:58.019Z,24.93
2018-12-04T13:46:27.615Z,3.30
2018-12-04T13:48:57.725Z,1.20
2018-12-04T13:51:31.357Z,1.13
2018-12-04T13:57:01.010Z,1.40
2018-12-04T13:59:31.690Z,1.13
2018-12-04T14:02:01.647Z,0.63
2018-12-04T14:04:36.800Z,0.70
2018-12-04T14:07:12.262Z,0.70
2018-12-04T14:09:45.933Z,0.80
2018-12-04T14:12:15.923Z,0.90
2018-12-04T14:14:46.589Z,0.73
2018-12-04T14:17:16.738Z,0.80
2018-12-04T14:19:50.615Z,0.80
2018-12-04T14:22:20.838Z,1.10
2018-12-04T14:24:52.043Z,1.97
2018-12-04T14:27:22.574Z,1.70
2018-12-04T14:29:53.048Z,0.80
2018-12-04T14:32:22.949Z,1.63
2018-12-04T14:34:54.274Z,1.07
2018-12-04T14:37:23.825Z,4.10
2018-12-04T14:39:55.619Z,8.40
2018-12-04T14:42:30.365Z,3.07
2018-12-04T14:45:02.213Z,2.83
2018-12-04T14:47:33.806Z,3.27
2018-12-04T14:50:07.567Z,2.97
2018-12-04T14:52:38.769Z,1.93
2018-12-04T14:55:10.885Z,1.87
2018-12-04T14:57:40.524Z,1.90
2018-12-04T15:00:12.137Z,2.13
2018-12-04T15:02:42.033Z,1.63
2018-12-04T15:05:13.013Z,1.87
2018-12-04T15:07:44.037Z,1.43
2018-12-04T15:10:15.517Z,1.20
2018-12-04T15:12:48.840Z,4.70
2018-12-04T15:15:25.714Z,6.07
2018-12-04T15:18:01.875Z,3.43
2018-12-04T15:20:32.618Z,16.50
2018-12-04T15:23:03.428Z,11.73
2018-12-04T15:25:34.484Z,6.57
2018-12-04T15:28:04.046Z,3.10
2018-12-04T15:30:37.168Z,2.87
2018-12-04T15:33:08.332Z,2.00
2018-12-04T15:35:40.193Z,2.37
2018-12-04T15:38:12.993Z,2.30
2018-12-04T15:40:45.243Z,3.20
2018-12-04T15:43:16.353Z,1.90
2018-12-04T15:45:46.320Z,1.43
2018-12-04T15:48:17.310Z,3.30
2018-12-04T15:50:47.889Z,1.53
2018-12-04T15:53:21.232Z,3.03
2018-12-04T15:55:52.233Z,1.70
2018-12-04T15:58:22.216Z,1.33
2018-12-04T16:00:53.374Z,1.27
2018-12-04T16:03:23.121Z,1.57
2018-12-04T16:06:00.021Z,1.50
2018-12-04T16:08:31.352Z,1.40
2018-12-04T16:14:01.184Z,1.20
2018-12-04T16:16:30.588Z,1.63
2018-12-04T16:19:01.019Z,1.90
2018-12-04T16:21:31.345Z,4.43
2018-12-04T16:24:02.474Z,3.50
2018-12-04T16:26:33.373Z,2.47
2018-12-04T16:29:04.320Z,2.17
2018-12-04T16:31:34.345Z,1.77
2018-12-04T16:34:08.384Z,1.80
2018-12-04T16:36:39.531Z,1.37
2018-12-04T16:39:11.910Z,1.70
2018-12-04T16:41:43.468Z,1.20
2018-12-04T16:44:13.464Z,1.50
2018-12-04T16:46:47.404Z,1.53
2018-12-04T16:49:19.200Z,2.17
2018-12-04T16:51:48.589Z,1.43
2018-12-04T16:54:19.433Z,1.40
2018-12-04T16:56:49.513Z,1.80
2018-12-04T16:59:21.552Z,1.43
2018-12-04T17:01:53.487Z,1.87
2018-12-04T17:04:28.686Z,2.13
2018-12-04T17:07:01.613Z,1.90
2018-12-04T17:09:33.928Z,3.10
2018-12-04T17:12:05.497Z,1.40
2018-12-04T17:14:37.432Z,2.43
2018-12-04T17:17:07.925Z,1.90
2018-12-04T17:19:37.690Z,1.63
2018-12-04T17:22:08.666Z,2.77
2018-12-04T17:24:42.487Z,2.60
2018-12-04T17:27:19.066Z,2.87
2018-12-04T17:29:49.829Z,3.47
2018-12-04T17:32:20.712Z,3.13
2018-12-04T17:34:51.689Z,2.70
2018-12-04T17:37:23.048Z,2.80
2018-12-04T17:39:54.091Z,2.23
2018-12-04T17:42:23.610Z,3.53
2018-12-04T17:44:53.693Z,1.67
2018-12-04T17:47:24.606Z,3.60
2018-12-04T17:49:54.868Z,4.43
2018-12-04T17:52:26.108Z,4.37
2018-12-04T17:54:56.332Z,5.90
2018-12-04T17:57:26.721Z,4.37
2018-12-04T17:59:57.713Z,6.10
2018-12-04T18:02:28.010Z,9.27
2018-12-04T18:04:58.774Z,7.63
2018-12-04T18:07:28.268Z,7.30
2018-12-04T18:09:59.690Z,6.77
2018-12-04T18:12:30.525Z,7.47
2018-12-04T18:15:01.389Z,5.33
2018-12-04T18:17:31.950Z,3.20
2018-12-04T18:20:03.364Z,7.63
2018-12-04T18:22:33.525Z,6.30
2018-12-04T18:25:04.037Z,5.03
2018-12-04T18:27:35.173Z,6.03
2018-12-04T18:30:06.253Z,3.97
2018-12-04T18:32:38.682Z,2.87
2018-12-04T18:35:10.785Z,5.27
2018-12-04T18:37:43.896Z,4.53
2018-12-04T18:40:14.885Z,3.47
2018-12-04T18:42:45.546Z,3.23
2018-12-04T18:45:20.177Z,7.27
2018-12-04T18:47:50.984Z,6.30
2018-12-04T18:50:24.459Z,3.77
2018-12-04T18:52:56.961Z,2.90
2018-12-04T18:55:32.012Z,2.10
2018-12-04T18:58:04.134Z,6.37
2018-12-04T19:00:35.148Z,7.07
2018-12-04T19:03:05.305Z,7.10
2018-12-04T19:05:36.189Z,4.03
2018-12-04T19:08:06.226Z,32.50
2018-12-04T19:10:36.499Z,26.07
2018-12-04T19:13:08.801Z,16.17
2018-12-04T19:15:42.974Z,12.73
2018-12-04T19:18:17.238Z,6.73
2018-12-04T19:20:49.482Z,5.33
2018-12-04T19:23:19.034Z,5.53
2018-12-04T19:25:52.502Z,6.87
2018-12-04T19:28:23.339Z,8.93
2018-12-04T19:30:53.737Z,5.97
2018-12-04T19:33:24.788Z,4.73
2018-12-04T19:35:55.388Z,2.90
2018-12-04T19:38:25.331Z,15.37
2018-12-04T19:40:58.085Z,15.47
2018-12-04T19:43:28.585Z,13.37
2018-12-04T19:46:00.425Z,6.47
2018-12-04T19:48:32.530Z,4.13
2018-12-04T19:51:05.029Z,2.40
2018-12-04T19:53:35.463Z,1.90
2018-12-04T19:56:06.862Z,2.40
2018-12-04T19:58:36.353Z,2.07
2018-12-04T20:01:07.665Z,2.07
2018-12-04T20:03:39.472Z,1.90
2018-12-04T20:06:09.902Z,1.87
2018-12-04T20:08:44.600Z,1.30
2018-12-04T20:11:15.912Z,1.40
2018-12-04T20:13:53.306Z,1.70
2018-12-04T20:16:28.277Z,1.77
2018-12-04T20:18:59.522Z,1.60
2018-12-04T20:21:29.030Z,3.20
2018-12-04T20:23:58.911Z,3.60
2018-12-04T20:26:28.526Z,4.10
2018-12-04T20:29:00.899Z,4.10
2018-12-04T20:31:32.847Z,3.40
2018-12-04T20:34:04.781Z,3.40
2018-12-04T20:36:35.737Z,2.07
2018-12-04T20:39:07.689Z,2.47
2018-12-04T20:41:38.754Z,2.30
2018-12-04T20:44:09.506Z,1.60
2018-12-04T20:46:40.641Z,2.13
2018-12-04T20:49:12.424Z,1.97
2018-12-04T20:51:42.008Z,1.50
2018-12-04T20:57:12.801Z,1.80
2018-12-04T20:59:44.406Z,1.53
2018-12-04T21:02:15.221Z,1.97
2018-12-04T21:04:49.421Z,1.90
2018-12-04T21:07:22.572Z,1.53
2018-12-04T21:12:50.654Z,1.80
2018-12-04T21:15:24.500Z,2.10
2018-12-04T21:17:54.622Z,1.60
2018-12-04T21:20:25.742Z,1.30
2018-12-04T21:22:55.508Z,2.00
2018-12-04T21:25:28.925Z,1.50
2018-12-04T21:28:05.545Z,1.70
2018-12-04T21:30:41.776Z,1.77
2018-12-04T21:33:17.967Z,1.90
2018-12-04T21:35:57.090Z,1.70
2018-12-04T21:38:36.723Z,1.17
2018-12-04T21:43:19.785Z,1.67
2018-12-04T21:45:57.614Z,1.97
2018-12-04T21:48:30.206Z,1.83
2018-12-04T21:51:00.946Z,1.53
2018-12-04T21:53:31.808Z,2.13
2018-12-04T21:56:02.054Z,2.43
2018-12-04T21:58:32.826Z,2.10
2018-12-04T22:01:06.834Z,2.50
2018-12-04T22:03:38.052Z,2.43
2018-12-04T22:06:08.805Z,2.83
2018-12-04T22:08:46.373Z,2.20
2018-12-04T22:11:18.206Z,3.20
2018-12-04T22:13:48.816Z,2.37
2018-12-04T22:16:19.834Z,2.13
2018-12-04T22:18:49.814Z,2.63
2018-12-04T22:21:23.720Z,2.50
2018-12-04T22:23:54.062Z,1.70
2018-12-04T22:26:24.864Z,2.20
2018-12-04T22:29:00.865Z,1.73
2018-12-04T22:31:32.203Z,1.90
2018-12-04T22:34:02.128Z,1.90
2018-12-04T22:36:31.925Z,1.87
2018-12-04T22:39:05.024Z,2.33
2018-12-04T22:41:34.944Z,2.13
2018-12-04T22:44:07.786Z,2.33
2018-12-04T22:46:40.038Z,2.67
2018-12-04T22:49:11.870Z,1.87
2018-12-04T22:51:42.382Z,2.00
2018-12-04T22:54:13.099Z,2.37
2018-12-04T22:56:43.461Z,1.80
2018-12-04T22:59:14.101Z,2.03
2018-12-04T23:01:44.409Z,1.60
2018-12-04T23:04:17.244Z,2.40
2018-12-04T23:06:51.966Z,2.17
2018-12-04T23:09:22.160Z,2.33
2018-12-04T23:11:53.315Z,2.97
2018-12-04T23:14:23.464Z,2.07
2018-12-04T23:16:58.182Z,2.33
2018-12-04T23:19:28.338Z,2.60
2018-12-04T23:21:59.269Z,2.13
2018-12-04T23:24:28.726Z,1.57
2018-12-04T23:27:00.156Z,2.57
2018-12-04T23:32:29.450Z,1.60
2018-12-04T23:34:59.138Z,1.43
2018-12-04T23:37:28.487Z,1.50
2018-12-04T23:40:00.867Z,1.67
2018-12-04T23:42:30.412Z,1.60
2018-12-04T23:45:01.250Z,2.67
2018-12-04T23:47:32.208Z,1.70
2018-12-04T23:50:02.497Z,1.70
2018-12-04T23:52:32.323Z,2.17
2018-12-04T23:55:03.587Z,2.33
